X  Fermer Données météorologiques d'aviation de Metar     LFPN Toussus-le-Noble Airport
Température
14°C Température
10°C Point de rosée
77% Humidité



Vent
3 KM/H
2 MPH
1 M/S
2 KTS



Calme
N
Conditions actuelles

Partiellement nuageux Partiellement nuageux
Pression 1017.95 (hPa) - 30.06 (inHg)
Visibilité 6 (mile) - 9.7 (km)
Aéroport
Code de l'aéroport LFPN

Emplacement: Toussus-le-Noble Airport
Distance: 14 (km)

Metar:
LFPN 262130Z AUTO VRB02KT 9999 FEW045 BKN090 OVC140 14/10 Q1018

Temps: 26-05-2024 23:30 CEST